sensor_id;sensor_type;location;lat;lon;timestamp;P1;durP1;ratioP1;P2;durP2;ratioP2
71166;SDS011;58864;45.928;20.078;2023-04-06T00:00:27;11.90;;;5.30;;
71166;SDS011;58864;45.928;20.078;2023-04-06T00:02:52;11.87;;;4.17;;
71166;SDS011;58864;45.928;20.078;2023-04-06T00:05:16;11.90;;;4.90;;
71166;SDS011;58864;45.928;20.078;2023-04-06T00:07:41;11.50;;;4.53;;
71166;SDS011;58864;45.928;20.078;2023-04-06T00:10:05;13.23;;;4.80;;
71166;SDS011;58864;45.928;20.078;2023-04-06T00:12:30;10.85;;;4.07;;
71166;SDS011;58864;45.928;20.078;2023-04-06T00:14:55;11.50;;;4.87;;
71166;SDS011;58864;45.928;20.078;2023-04-06T00:17:19;11.07;;;4.53;;
71166;SDS011;58864;45.928;20.078;2023-04-06T00:19:44;14.95;;;4.40;;
71166;SDS011;58864;45.928;20.078;2023-04-06T00:22:08;10.13;;;4.03;;
71166;SDS011;58864;45.928;20.078;2023-04-06T00:24:33;11.77;;;4.30;;
71166;SDS011;58864;45.928;20.078;2023-04-06T00:26:57;10.88;;;4.15;;
71166;SDS011;58864;45.928;20.078;2023-04-06T00:29:22;12.50;;;4.77;;
71166;SDS011;58864;45.928;20.078;2023-04-06T00:31:46;11.20;;;4.53;;
71166;SDS011;58864;45.928;20.078;2023-04-06T00:34:10;13.53;;;4.73;;
71166;SDS011;58864;45.928;20.078;2023-04-06T00:36:35;12.73;;;4.70;;
71166;SDS011;58864;45.928;20.078;2023-04-06T00:38:59;13.03;;;4.93;;
71166;SDS011;58864;45.928;20.078;2023-04-06T00:41:24;11.60;;;4.32;;
71166;SDS011;58864;45.928;20.078;2023-04-06T00:43:49;14.27;;;5.07;;
71166;SDS011;58864;45.928;20.078;2023-04-06T00:46:13;11.98;;;4.65;;
71166;SDS011;58864;45.928;20.078;2023-04-06T00:48:38;10.60;;;4.17;;
71166;SDS011;58864;45.928;20.078;2023-04-06T00:51:03;11.65;;;4.35;;
71166;SDS011;58864;45.928;20.078;2023-04-06T00:53:27;10.90;;;4.70;;
71166;SDS011;58864;45.928;20.078;2023-04-06T00:55:52;12.90;;;4.50;;
71166;SDS011;58864;45.928;20.078;2023-04-06T00:58:16;11.50;;;4.63;;
71166;SDS011;58864;45.928;20.078;2023-04-06T01:00:41;11.00;;;3.77;;
71166;SDS011;58864;45.928;20.078;2023-04-06T01:03:06;9.55;;;4.15;;
71166;SDS011;58864;45.928;20.078;2023-04-06T01:05:32;8.90;;;3.67;;
71166;SDS011;58864;45.928;20.078;2023-04-06T01:07:58;10.43;;;4.30;;
71166;SDS011;58864;45.928;20.078;2023-04-06T01:10:26;12.20;;;4.23;;
71166;SDS011;58864;45.928;20.078;2023-04-06T01:12:51;10.52;;;4.25;;
71166;SDS011;58864;45.928;20.078;2023-04-06T01:15:16;14.97;;;5.00;;
71166;SDS011;58864;45.928;20.078;2023-04-06T01:17:40;12.45;;;4.40;;
71166;SDS011;58864;45.928;20.078;2023-04-06T01:20:05;14.13;;;5.13;;
71166;SDS011;58864;45.928;20.078;2023-04-06T01:22:30;12.23;;;4.75;;
71166;SDS011;58864;45.928;20.078;2023-04-06T01:24:55;12.60;;;4.57;;
71166;SDS011;58864;45.928;20.078;2023-04-06T01:27:20;10.88;;;4.57;;
71166;SDS011;58864;45.928;20.078;2023-04-06T01:29:45;12.30;;;4.90;;
71166;SDS011;58864;45.928;20.078;2023-04-06T01:32:09;11.13;;;4.78;;
71166;SDS011;58864;45.928;20.078;2023-04-06T01:34:34;11.87;;;4.33;;
71166;SDS011;58864;45.928;20.078;2023-04-06T01:36:58;9.70;;;3.90;;
71166;SDS011;58864;45.928;20.078;2023-04-06T01:39:23;10.53;;;4.03;;
71166;SDS011;58864;45.928;20.078;2023-04-06T01:41:49;11.73;;;4.10;;
71166;SDS011;58864;45.928;20.078;2023-04-06T01:44:17;11.03;;;4.00;;
71166;SDS011;58864;45.928;20.078;2023-04-06T01:46:45;9.63;;;4.20;;
71166;SDS011;58864;45.928;20.078;2023-04-06T01:49:09;9.82;;;3.97;;
71166;SDS011;58864;45.928;20.078;2023-04-06T01:51:34;12.20;;;4.43;;
71166;SDS011;58864;45.928;20.078;2023-04-06T01:53:58;11.37;;;4.00;;
71166;SDS011;58864;45.928;20.078;2023-04-06T01:56:23;13.73;;;4.30;;
71166;SDS011;58864;45.928;20.078;2023-04-06T01:58:48;12.80;;;4.50;;
71166;SDS011;58864;45.928;20.078;2023-04-06T02:01:12;14.20;;;4.27;;
71166;SDS011;58864;45.928;20.078;2023-04-06T02:03:36;12.32;;;5.20;;
71166;SDS011;58864;45.928;20.078;2023-04-06T02:06:01;13.37;;;4.20;;
71166;SDS011;58864;45.928;20.078;2023-04-06T02:08:25;12.23;;;4.77;;
71166;SDS011;58864;45.928;20.078;2023-04-06T02:10:50;11.80;;;4.30;;
71166;SDS011;58864;45.928;20.078;2023-04-06T02:13:14;10.50;;;4.53;;
71166;SDS011;58864;45.928;20.078;2023-04-06T02:15:39;14.03;;;4.90;;
71166;SDS011;58864;45.928;20.078;2023-04-06T02:18:03;13.10;;;4.83;;
71166;SDS011;58864;45.928;20.078;2023-04-06T02:20:28;13.43;;;4.80;;
71166;SDS011;58864;45.928;20.078;2023-04-06T02:22:52;15.20;;;5.07;;
71166;SDS011;58864;45.928;20.078;2023-04-06T02:25:17;10.03;;;4.20;;
71166;SDS011;58864;45.928;20.078;2023-04-06T02:27:41;12.20;;;4.63;;
71166;SDS011;58864;45.928;20.078;2023-04-06T02:30:06;12.50;;;4.47;;
71166;SDS011;58864;45.928;20.078;2023-04-06T02:32:31;11.75;;;5.05;;
71166;SDS011;58864;45.928;20.078;2023-04-06T02:34:55;12.50;;;4.83;;
71166;SDS011;58864;45.928;20.078;2023-04-06T02:37:20;14.60;;;5.10;;
71166;SDS011;58864;45.928;20.078;2023-04-06T02:39:44;12.45;;;5.10;;
71166;SDS011;58864;45.928;20.078;2023-04-06T02:42:09;15.80;;;6.17;;
71166;SDS011;58864;45.928;20.078;2023-04-06T02:44:34;11.27;;;5.17;;
71166;SDS011;58864;45.928;20.078;2023-04-06T02:46:59;14.38;;;5.25;;
71166;SDS011;58864;45.928;20.078;2023-04-06T02:49:23;11.47;;;4.43;;
71166;SDS011;58864;45.928;20.078;2023-04-06T02:51:48;14.67;;;5.43;;
71166;SDS011;58864;45.928;20.078;2023-04-06T02:54:12;12.57;;;4.93;;
71166;SDS011;58864;45.928;20.078;2023-04-06T02:56:36;12.30;;;5.30;;
71166;SDS011;58864;45.928;20.078;2023-04-06T02:59:01;12.13;;;5.13;;
71166;SDS011;58864;45.928;20.078;2023-04-06T03:01:25;11.37;;;4.30;;
71166;SDS011;58864;45.928;20.078;2023-04-06T03:03:50;10.38;;;4.40;;
71166;SDS011;58864;45.928;20.078;2023-04-06T03:06:14;12.10;;;5.10;;
71166;SDS011;58864;45.928;20.078;2023-04-06T03:08:39;16.67;;;6.30;;
71166;SDS011;58864;45.928;20.078;2023-04-06T03:11:03;14.10;;;6.03;;
71166;SDS011;58864;45.928;20.078;2023-04-06T03:13:28;12.23;;;5.73;;
71166;SDS011;58864;45.928;20.078;2023-04-06T03:15:52;12.03;;;5.33;;
71166;SDS011;58864;45.928;20.078;2023-04-06T03:18:20;15.07;;;5.88;;
71166;SDS011;58864;45.928;20.078;2023-04-06T03:20:46;12.27;;;5.22;;
71166;SDS011;58864;45.928;20.078;2023-04-06T03:23:11;14.77;;;5.50;;
71166;SDS011;58864;45.928;20.078;2023-04-06T03:25:35;12.88;;;5.20;;
71166;SDS011;58864;45.928;20.078;2023-04-06T03:28:00;14.07;;;4.90;;
71166;SDS011;58864;45.928;20.078;2023-04-06T03:30:24;11.17;;;5.00;;
71166;SDS011;58864;45.928;20.078;2023-04-06T03:32:49;13.38;;;5.35;;
71166;SDS011;58864;45.928;20.078;2023-04-06T03:35:14;14.67;;;5.33;;
71166;SDS011;58864;45.928;20.078;2023-04-06T03:37:38;16.63;;;5.67;;
71166;SDS011;58864;45.928;20.078;2023-04-06T03:40:03;14.05;;;5.50;;
71166;SDS011;58864;45.928;20.078;2023-04-06T03:42:28;17.33;;;5.75;;
71166;SDS011;58864;45.928;20.078;2023-04-06T03:44:53;13.13;;;4.93;;
71166;SDS011;58864;45.928;20.078;2023-04-06T03:47:17;12.93;;;5.03;;
71166;SDS011;58864;45.928;20.078;2023-04-06T03:49:41;14.03;;;4.93;;
71166;SDS011;58864;45.928;20.078;2023-04-06T03:52:06;12.13;;;4.40;;
71166;SDS011;58864;45.928;20.078;2023-04-06T03:54:30;11.63;;;5.00;;
71166;SDS011;58864;45.928;20.078;2023-04-06T03:56:55;11.57;;;4.77;;
71166;SDS011;58864;45.928;20.078;2023-04-06T03:59:19;11.07;;;4.57;;
71166;SDS011;58864;45.928;20.078;2023-04-06T04:01:44;11.93;;;4.73;;
71166;SDS011;58864;45.928;20.078;2023-04-06T04:04:08;12.23;;;4.50;;
71166;SDS011;58864;45.928;20.078;2023-04-06T04:06:33;12.00;;;4.85;;
71166;SDS011;58864;45.928;20.078;2023-04-06T04:09:00;13.82;;;4.95;;
71166;SDS011;58864;45.928;20.078;2023-04-06T04:11:24;14.70;;;5.73;;
71166;SDS011;58864;45.928;20.078;2023-04-06T04:13:49;19.03;;;7.80;;
71166;SDS011;58864;45.928;20.078;2023-04-06T04:16:13;16.30;;;6.80;;
71166;SDS011;58864;45.928;20.078;2023-04-06T04:18:38;17.73;;;7.03;;
71166;SDS011;58864;45.928;20.078;2023-04-06T04:21:03;22.73;;;8.57;;
71166;SDS011;58864;45.928;20.078;2023-04-06T04:23:27;25.30;;;9.57;;
71166;SDS011;58864;45.928;20.078;2023-04-06T04:25:52;26.63;;;9.73;;
71166;SDS011;58864;45.928;20.078;2023-04-06T04:28:16;23.33;;;8.30;;
71166;SDS011;58864;45.928;20.078;2023-04-06T04:30:40;20.80;;;8.23;;
71166;SDS011;58864;45.928;20.078;2023-04-06T04:33:05;23.93;;;8.70;;
71166;SDS011;58864;45.928;20.078;2023-04-06T04:35:29;19.33;;;8.13;;
71166;SDS011;58864;45.928;20.078;2023-04-06T04:37:54;18.73;;;7.43;;
71166;SDS011;58864;45.928;20.078;2023-04-06T04:40:18;21.00;;;9.07;;
71166;SDS011;58864;45.928;20.078;2023-04-06T04:42:43;25.30;;;9.57;;
71166;SDS011;58864;45.928;20.078;2023-04-06T04:45:07;18.27;;;8.10;;
71166;SDS011;58864;45.928;20.078;2023-04-06T04:47:32;20.63;;;8.50;;
71166;SDS011;58864;45.928;20.078;2023-04-06T04:49:57;25.87;;;10.27;;
71166;SDS011;58864;45.928;20.078;2023-04-06T04:52:21;31.83;;;13.73;;
71166;SDS011;58864;45.928;20.078;2023-04-06T04:54:45;37.73;;;14.07;;
71166;SDS011;58864;45.928;20.078;2023-04-06T04:57:11;44.28;;;18.33;;
71166;SDS011;58864;45.928;20.078;2023-04-06T04:59:35;46.33;;;20.87;;
71166;SDS011;58864;45.928;20.078;2023-04-06T05:02:00;39.10;;;18.02;;
71166;SDS011;58864;45.928;20.078;2023-04-06T05:04:24;31.20;;;14.37;;
71166;SDS011;58864;45.928;20.078;2023-04-06T05:06:49;25.92;;;11.75;;
71166;SDS011;58864;45.928;20.078;2023-04-06T05:09:13;23.80;;;11.93;;
71166;SDS011;58864;45.928;20.078;2023-04-06T05:11:38;31.50;;;13.27;;
71166;SDS011;58864;45.928;20.078;2023-04-06T05:14:02;34.20;;;13.33;;
71166;SDS011;58864;45.928;20.078;2023-04-06T05:16:27;36.63;;;14.70;;
71166;SDS011;58864;45.928;20.078;2023-04-06T05:18:51;34.20;;;13.60;;
71166;SDS011;58864;45.928;20.078;2023-04-06T05:21:17;32.88;;;13.88;;
71166;SDS011;58864;45.928;20.078;2023-04-06T05:23:41;47.73;;;15.73;;
71166;SDS011;58864;45.928;20.078;2023-04-06T05:26:05;34.97;;;12.60;;
71166;SDS011;58864;45.928;20.078;2023-04-06T05:28:30;35.77;;;13.60;;
71166;SDS011;58864;45.928;20.078;2023-04-06T05:30:55;35.70;;;15.93;;
71166;SDS011;58864;45.928;20.078;2023-04-06T05:33:20;29.67;;;12.50;;
71166;SDS011;58864;45.928;20.078;2023-04-06T05:35:45;28.37;;;11.20;;
71166;SDS011;58864;45.928;20.078;2023-04-06T05:38:09;35.25;;;14.85;;
71166;SDS011;58864;45.928;20.078;2023-04-06T05:40:34;39.60;;;18.20;;
71166;SDS011;58864;45.928;20.078;2023-04-06T05:42:59;34.38;;;16.50;;
71166;SDS011;58864;45.928;20.078;2023-04-06T05:45:23;35.33;;;16.40;;
71166;SDS011;58864;45.928;20.078;2023-04-06T05:47:48;33.60;;;14.40;;
71166;SDS011;58864;45.928;20.078;2023-04-06T05:50:14;29.98;;;13.05;;
71166;SDS011;58864;45.928;20.078;2023-04-06T05:52:39;32.73;;;11.93;;
71166;SDS011;58864;45.928;20.078;2023-04-06T05:55:07;32.88;;;12.63;;
71166;SDS011;58864;45.928;20.078;2023-04-06T05:57:31;32.28;;;13.63;;
71166;SDS011;58864;45.928;20.078;2023-04-06T05:59:56;33.73;;;14.23;;
71166;SDS011;58864;45.928;20.078;2023-04-06T06:02:20;34.57;;;14.50;;
71166;SDS011;58864;45.928;20.078;2023-04-06T06:04:45;39.78;;;15.23;;
71166;SDS011;58864;45.928;20.078;2023-04-06T06:07:10;53.65;;;16.38;;
71166;SDS011;58864;45.928;20.078;2023-04-06T06:09:34;48.70;;;17.50;;
71166;SDS011;58864;45.928;20.078;2023-04-06T06:11:59;45.00;;;16.87;;
71166;SDS011;58864;45.928;20.078;2023-04-06T06:14:24;47.50;;;17.95;;
71166;SDS011;58864;45.928;20.078;2023-04-06T06:16:48;46.57;;;17.97;;
71166;SDS011;58864;45.928;20.078;2023-04-06T06:19:13;50.47;;;19.80;;
71166;SDS011;58864;45.928;20.078;2023-04-06T06:21:37;61.23;;;23.63;;
71166;SDS011;58864;45.928;20.078;2023-04-06T06:24:02;89.53;;;32.30;;
71166;SDS011;58864;45.928;20.078;2023-04-06T06:26:26;87.78;;;32.40;;
71166;SDS011;58864;45.928;20.078;2023-04-06T06:28:51;75.70;;;27.87;;
71166;SDS011;58864;45.928;20.078;2023-04-06T06:31:15;51.47;;;19.60;;
71166;SDS011;58864;45.928;20.078;2023-04-06T06:33:40;49.53;;;18.65;;
71166;SDS011;58864;45.928;20.078;2023-04-06T06:36:05;43.30;;;16.40;;
71166;SDS011;58864;45.928;20.078;2023-04-06T06:38:29;42.17;;;17.40;;
71166;SDS011;58864;45.928;20.078;2023-04-06T06:40:54;36.40;;;14.37;;
71166;SDS011;58864;45.928;20.078;2023-04-06T06:43:18;35.50;;;14.67;;
71166;SDS011;58864;45.928;20.078;2023-04-06T06:45:43;33.65;;;12.45;;
71166;SDS011;58864;45.928;20.078;2023-04-06T06:48:08;22.23;;;9.50;;
71166;SDS011;58864;45.928;20.078;2023-04-06T06:50:32;24.98;;;9.75;;
71166;SDS011;58864;45.928;20.078;2023-04-06T06:52:57;21.97;;;9.80;;
71166;SDS011;58864;45.928;20.078;2023-04-06T06:55:21;20.50;;;8.77;;
71166;SDS011;58864;45.928;20.078;2023-04-06T06:57:46;24.85;;;9.93;;
71166;SDS011;58864;45.928;20.078;2023-04-06T07:00:10;26.87;;;9.67;;
71166;SDS011;58864;45.928;20.078;2023-04-06T07:02:37;21.20;;;8.32;;
71166;SDS011;58864;45.928;20.078;2023-04-06T07:05:02;21.17;;;8.30;;
71166;SDS011;58864;45.928;20.078;2023-04-06T07:07:27;19.08;;;7.85;;
71166;SDS011;58864;45.928;20.078;2023-04-06T07:09:51;17.20;;;7.23;;
71166;SDS011;58864;45.928;20.078;2023-04-06T07:12:15;19.93;;;7.70;;
71166;SDS011;58864;45.928;20.078;2023-04-06T07:14:40;23.08;;;8.98;;
71166;SDS011;58864;45.928;20.078;2023-04-06T07:17:05;22.60;;;8.50;;
71166;SDS011;58864;45.928;20.078;2023-04-06T07:19:29;18.88;;;7.93;;
71166;SDS011;58864;45.928;20.078;2023-04-06T07:21:54;21.03;;;8.77;;
71166;SDS011;58864;45.928;20.078;2023-04-06T07:24:18;21.93;;;8.57;;
71166;SDS011;58864;45.928;20.078;2023-04-06T07:26:43;22.20;;;8.40;;
71166;SDS011;58864;45.928;20.078;2023-04-06T07:29:07;20.40;;;8.37;;
71166;SDS011;58864;45.928;20.078;2023-04-06T07:31:31;19.73;;;8.10;;
71166;SDS011;58864;45.928;20.078;2023-04-06T07:33:56;22.50;;;7.90;;
71166;SDS011;58864;45.928;20.078;2023-04-06T07:36:21;21.42;;;8.43;;
71166;SDS011;58864;45.928;20.078;2023-04-06T07:38:45;26.10;;;9.47;;
71166;SDS011;58864;45.928;20.078;2023-04-06T07:41:10;20.40;;;9.95;;
71166;SDS011;58864;45.928;20.078;2023-04-06T07:43:34;21.17;;;9.30;;
71166;SDS011;58864;45.928;20.078;2023-04-06T07:45:59;21.07;;;9.83;;
71166;SDS011;58864;45.928;20.078;2023-04-06T07:48:24;22.60;;;9.38;;
71166;SDS011;58864;45.928;20.078;2023-04-06T07:50:49;19.60;;;8.23;;
71166;SDS011;58864;45.928;20.078;2023-04-06T07:53:13;16.52;;;7.95;;
71166;SDS011;58864;45.928;20.078;2023-04-06T07:55:38;19.77;;;8.00;;
71166;SDS011;58864;45.928;20.078;2023-04-06T07:58:02;19.38;;;8.25;;
71166;SDS011;58864;45.928;20.078;2023-04-06T08:00:27;19.80;;;8.37;;
71166;SDS011;58864;45.928;20.078;2023-04-06T08:02:51;17.63;;;8.13;;
71166;SDS011;58864;45.928;20.078;2023-04-06T08:05:16;19.73;;;7.33;;
71166;SDS011;58864;45.928;20.078;2023-04-06T08:07:41;20.93;;;8.13;;
71166;SDS011;58864;45.928;20.078;2023-04-06T08:10:06;18.75;;;7.82;;
71166;SDS011;58864;45.928;20.078;2023-04-06T08:12:32;17.50;;;8.10;;
71166;SDS011;58864;45.928;20.078;2023-04-06T08:14:57;19.27;;;7.93;;
71166;SDS011;58864;45.928;20.078;2023-04-06T08:17:22;15.88;;;6.90;;
71166;SDS011;58864;45.928;20.078;2023-04-06T08:19:46;16.30;;;7.03;;
71166;SDS011;58864;45.928;20.078;2023-04-06T08:22:11;22.40;;;8.33;;
71166;SDS011;58864;45.928;20.078;2023-04-06T08:24:35;16.48;;;7.00;;
71166;SDS011;58864;45.928;20.078;2023-04-06T08:27:00;15.87;;;7.40;;
71166;SDS011;58864;45.928;20.078;2023-04-06T08:29:24;18.07;;;7.63;;
71166;SDS011;58864;45.928;20.078;2023-04-06T08:31:49;16.35;;;7.18;;
71166;SDS011;58864;45.928;20.078;2023-04-06T08:34:13;16.67;;;6.97;;
71166;SDS011;58864;45.928;20.078;2023-04-06T08:36:39;17.65;;;7.75;;
71166;SDS011;58864;45.928;20.078;2023-04-06T08:39:03;15.60;;;7.53;;
71166;SDS011;58864;45.928;20.078;2023-04-06T08:41:27;24.00;;;9.07;;
71166;SDS011;58864;45.928;20.078;2023-04-06T08:43:56;18.93;;;8.03;;
71166;SDS011;58864;45.928;20.078;2023-04-06T08:46:22;15.02;;;7.32;;
71166;SDS011;58864;45.928;20.078;2023-04-06T08:48:52;20.50;;;7.47;;
71166;SDS011;58864;45.928;20.078;2023-04-06T08:51:17;17.80;;;8.20;;
71166;SDS011;58864;45.928;20.078;2023-04-06T08:53:42;20.80;;;8.50;;
71166;SDS011;58864;45.928;20.078;2023-04-06T08:56:06;17.97;;;8.27;;
71166;SDS011;58864;45.928;20.078;2023-04-06T08:58:35;19.57;;;8.37;;
71166;SDS011;58864;45.928;20.078;2023-04-06T09:01:00;20.13;;;7.68;;
71166;SDS011;58864;45.928;20.078;2023-04-06T09:03:28;16.92;;;7.75;;
71166;SDS011;58864;45.928;20.078;2023-04-06T09:05:53;16.17;;;7.30;;
71166;SDS011;58864;45.928;20.078;2023-04-06T09:08:18;16.65;;;8.02;;
71166;SDS011;58864;45.928;20.078;2023-04-06T09:10:43;17.00;;;7.90;;
71166;SDS011;58864;45.928;20.078;2023-04-06T09:13:08;17.60;;;7.88;;
71166;SDS011;58864;45.928;20.078;2023-04-06T09:15:33;18.23;;;8.38;;
71166;SDS011;58864;45.928;20.078;2023-04-06T09:17:58;15.60;;;6.93;;
71166;SDS011;58864;45.928;20.078;2023-04-06T09:20:23;16.50;;;7.40;;
71166;SDS011;58864;45.928;20.078;2023-04-06T09:22:50;15.23;;;6.60;;
71166;SDS011;58864;45.928;20.078;2023-04-06T09:25:18;16.83;;;7.78;;
71166;SDS011;58864;45.928;20.078;2023-04-06T09:27:44;19.23;;;7.20;;
71166;SDS011;58864;45.928;20.078;2023-04-06T09:30:10;15.97;;;7.67;;
71166;SDS011;58864;45.928;20.078;2023-04-06T09:32:51;17.63;;;8.27;;
71166;SDS011;58864;45.928;20.078;2023-04-06T09:35:16;16.87;;;6.83;;
71166;SDS011;58864;45.928;20.078;2023-04-06T09:37:42;14.68;;;6.78;;
71166;SDS011;58864;45.928;20.078;2023-04-06T09:40:07;15.02;;;6.68;;
71166;SDS011;58864;45.928;20.078;2023-04-06T09:42:32;14.95;;;6.50;;
71166;SDS011;58864;45.928;20.078;2023-04-06T09:44:57;13.63;;;5.90;;
71166;SDS011;58864;45.928;20.078;2023-04-06T09:47:21;15.80;;;6.00;;
71166;SDS011;58864;45.928;20.078;2023-04-06T09:49:47;17.25;;;7.45;;
71166;SDS011;58864;45.928;20.078;2023-04-06T09:52:14;13.30;;;6.40;;
71166;SDS011;58864;45.928;20.078;2023-04-06T09:54:39;12.90;;;5.80;;
71166;SDS011;58864;45.928;20.078;2023-04-06T09:57:20;15.30;;;6.83;;
71166;SDS011;58864;45.928;20.078;2023-04-06T09:59:50;13.38;;;6.40;;
71166;SDS011;58864;45.928;20.078;2023-04-06T10:04:59;16.70;;;6.22;;
71166;SDS011;58864;45.928;20.078;2023-04-06T10:07:26;13.90;;;5.70;;
71166;SDS011;58864;45.928;20.078;2023-04-06T10:09:50;15.17;;;6.13;;
71166;SDS011;58864;45.928;20.078;2023-04-06T10:12:17;15.38;;;6.50;;
71166;SDS011;58864;45.928;20.078;2023-04-06T10:14:41;14.27;;;5.90;;
71166;SDS011;58864;45.928;20.078;2023-04-06T10:17:07;14.68;;;6.85;;
71166;SDS011;58864;45.928;20.078;2023-04-06T10:19:39;14.53;;;6.60;;
71166;SDS011;58864;45.928;20.078;2023-04-06T10:22:09;16.45;;;7.20;;
71166;SDS011;58864;45.928;20.078;2023-04-06T10:24:37;18.02;;;6.40;;
71166;SDS011;58864;45.928;20.078;2023-04-06T10:27:02;15.27;;;6.45;;
71166;SDS011;58864;45.928;20.078;2023-04-06T10:30:01;11.90;;;6.00;;
71166;SDS011;58864;45.928;20.078;2023-04-06T10:32:18;14.80;;;6.37;;
71166;SDS011;58864;45.928;20.078;2023-04-06T10:34:42;15.95;;;6.07;;
71166;SDS011;58864;45.928;20.078;2023-04-06T10:37:14;12.30;;;5.50;;
71166;SDS011;58864;45.928;20.078;2023-04-06T10:39:45;14.15;;;6.03;;
71166;SDS011;58864;45.928;20.078;2023-04-06T10:42:10;12.38;;;5.90;;
71166;SDS011;58864;45.928;20.078;2023-04-06T10:44:41;13.30;;;5.45;;
71166;SDS011;58864;45.928;20.078;2023-04-06T10:47:06;16.27;;;6.27;;
71166;SDS011;58864;45.928;20.078;2023-04-06T10:49:40;16.92;;;6.57;;
71166;SDS011;58864;45.928;20.078;2023-04-06T10:52:05;13.43;;;6.57;;
71166;SDS011;58864;45.928;20.078;2023-04-06T10:54:30;17.33;;;6.70;;
71166;SDS011;58864;45.928;20.078;2023-04-06T10:56:56;13.45;;;6.88;;
71166;SDS011;58864;45.928;20.078;2023-04-06T10:59:21;14.20;;;6.23;;
71166;SDS011;58864;45.928;20.078;2023-04-06T11:01:46;13.32;;;6.32;;
71166;SDS011;58864;45.928;20.078;2023-04-06T11:04:11;14.27;;;6.20;;
71166;SDS011;58864;45.928;20.078;2023-04-06T11:06:47;13.80;;;6.38;;
71166;SDS011;58864;45.928;20.078;2023-04-06T11:09:22;19.73;;;5.95;;
71166;SDS011;58864;45.928;20.078;2023-04-06T11:11:50;13.45;;;5.70;;
71166;SDS011;58864;45.928;20.078;2023-04-06T11:14:15;13.73;;;6.45;;
71166;SDS011;58864;45.928;20.078;2023-04-06T11:16:39;12.73;;;6.00;;
71166;SDS011;58864;45.928;20.078;2023-04-06T11:19:04;17.60;;;6.67;;
71166;SDS011;58864;45.928;20.078;2023-04-06T11:21:37;13.45;;;6.85;;
71166;SDS011;58864;45.928;20.078;2023-04-06T11:24:14;13.30;;;6.47;;
71166;SDS011;58864;45.928;20.078;2023-04-06T11:26:47;11.77;;;5.90;;
71166;SDS011;58864;45.928;20.078;2023-04-06T11:29:16;14.17;;;6.23;;
71166;SDS011;58864;45.928;20.078;2023-04-06T11:31:42;15.30;;;6.43;;
71166;SDS011;58864;45.928;20.078;2023-04-06T11:34:09;12.68;;;6.65;;
71166;SDS011;58864;45.928;20.078;2023-04-06T11:36:35;12.68;;;6.15;;
71166;SDS011;58864;45.928;20.078;2023-04-06T11:39:00;12.75;;;6.40;;
71166;SDS011;58864;45.928;20.078;2023-04-06T11:41:25;15.40;;;6.67;;
71166;SDS011;58864;45.928;20.078;2023-04-06T11:43:54;13.63;;;6.63;;
71166;SDS011;58864;45.928;20.078;2023-04-06T11:46:19;17.90;;;7.63;;
71166;SDS011;58864;45.928;20.078;2023-04-06T11:48:44;13.07;;;6.40;;
71166;SDS011;58864;45.928;20.078;2023-04-06T11:51:09;15.02;;;6.75;;
71166;SDS011;58864;45.928;20.078;2023-04-06T11:53:42;14.03;;;6.70;;
71166;SDS011;58864;45.928;20.078;2023-04-06T11:56:08;11.93;;;6.10;;
71166;SDS011;58864;45.928;20.078;2023-04-06T11:58:33;14.43;;;6.67;;
71166;SDS011;58864;45.928;20.078;2023-04-06T12:01:03;14.23;;;6.25;;
71166;SDS011;58864;45.928;20.078;2023-04-06T12:03:28;13.53;;;6.00;;
71166;SDS011;58864;45.928;20.078;2023-04-06T12:05:52;14.00;;;6.13;;
71166;SDS011;58864;45.928;20.078;2023-04-06T12:08:17;14.63;;;6.37;;
71166;SDS011;58864;45.928;20.078;2023-04-06T12:10:41;12.03;;;5.80;;
71166;SDS011;58864;45.928;20.078;2023-04-06T12:13:09;16.15;;;6.88;;
71166;SDS011;58864;45.928;20.078;2023-04-06T12:15:33;15.33;;;6.83;;
71166;SDS011;58864;45.928;20.078;2023-04-06T12:17:58;12.48;;;5.85;;
71166;SDS011;58864;45.928;20.078;2023-04-06T12:20:22;13.13;;;5.80;;
71166;SDS011;58864;45.928;20.078;2023-04-06T12:22:46;13.30;;;6.30;;
71166;SDS011;58864;45.928;20.078;2023-04-06T12:25:11;14.52;;;6.47;;
71166;SDS011;58864;45.928;20.078;2023-04-06T12:27:36;14.00;;;6.43;;
71166;SDS011;58864;45.928;20.078;2023-04-06T12:30:00;11.65;;;5.55;;
71166;SDS011;58864;45.928;20.078;2023-04-06T12:32:26;11.85;;;5.90;;
71166;SDS011;58864;45.928;20.078;2023-04-06T12:34:53;11.67;;;5.60;;
71166;SDS011;58864;45.928;20.078;2023-04-06T12:37:18;12.23;;;5.70;;
71166;SDS011;58864;45.928;20.078;2023-04-06T12:39:42;17.27;;;6.00;;
71166;SDS011;58864;45.928;20.078;2023-04-06T12:42:08;13.27;;;6.20;;
71166;SDS011;58864;45.928;20.078;2023-04-06T12:44:33;13.45;;;6.25;;
71166;SDS011;58864;45.928;20.078;2023-04-06T12:46:57;11.57;;;5.50;;
71166;SDS011;58864;45.928;20.078;2023-04-06T12:49:22;16.37;;;6.30;;
71166;SDS011;58864;45.928;20.078;2023-04-06T12:51:46;10.77;;;5.10;;
71166;SDS011;58864;45.928;20.078;2023-04-06T12:54:11;11.27;;;5.53;;
71166;SDS011;58864;45.928;20.078;2023-04-06T12:56:35;12.73;;;6.27;;
71166;SDS011;58864;45.928;20.078;2023-04-06T12:59:00;11.23;;;5.50;;
71166;SDS011;58864;45.928;20.078;2023-04-06T13:01:25;12.03;;;6.57;;
71166;SDS011;58864;45.928;20.078;2023-04-06T13:03:51;16.70;;;6.50;;
71166;SDS011;58864;45.928;20.078;2023-04-06T13:06:16;11.90;;;6.07;;
71166;SDS011;58864;45.928;20.078;2023-04-06T13:08:40;14.80;;;6.72;;
71166;SDS011;58864;45.928;20.078;2023-04-06T13:11:05;14.50;;;6.67;;
71166;SDS011;58864;45.928;20.078;2023-04-06T13:13:32;14.65;;;6.80;;
71166;SDS011;58864;45.928;20.078;2023-04-06T13:16:01;14.10;;;6.77;;
71166;SDS011;58864;45.928;20.078;2023-04-06T13:18:28;16.17;;;7.03;;
71166;SDS011;58864;45.928;20.078;2023-04-06T13:20:52;15.23;;;6.55;;
71166;SDS011;58864;45.928;20.078;2023-04-06T13:23:19;15.70;;;7.60;;
71166;SDS011;58864;45.928;20.078;2023-04-06T13:25:44;13.43;;;6.70;;
71166;SDS011;58864;45.928;20.078;2023-04-06T13:28:09;14.05;;;6.57;;
71166;SDS011;58864;45.928;20.078;2023-04-06T13:30:34;16.75;;;6.97;;
71166;SDS011;58864;45.928;20.078;2023-04-06T13:32:58;17.63;;;7.70;;
71166;SDS011;58864;45.928;20.078;2023-04-06T13:35:22;17.93;;;8.27;;
71166;SDS011;58864;45.928;20.078;2023-04-06T13:37:50;16.73;;;7.60;;
71166;SDS011;58864;45.928;20.078;2023-04-06T13:40:16;14.13;;;7.15;;
71166;SDS011;58864;45.928;20.078;2023-04-06T13:42:40;17.23;;;7.25;;
71166;SDS011;58864;45.928;20.078;2023-04-06T13:45:08;16.13;;;8.07;;
71166;SDS011;58864;45.928;20.078;2023-04-06T13:47:32;15.82;;;7.75;;
71166;SDS011;58864;45.928;20.078;2023-04-06T13:49:57;15.70;;;8.20;;
71166;SDS011;58864;45.928;20.078;2023-04-06T13:52:24;16.88;;;8.43;;
71166;SDS011;58864;45.928;20.078;2023-04-06T13:54:49;14.00;;;7.03;;
71166;SDS011;58864;45.928;20.078;2023-04-06T13:57:14;16.60;;;7.70;;
71166;SDS011;58864;45.928;20.078;2023-04-06T13:59:38;17.05;;;8.45;;
71166;SDS011;58864;45.928;20.078;2023-04-06T14:02:03;17.00;;;7.53;;
71166;SDS011;58864;45.928;20.078;2023-04-06T14:04:29;16.67;;;7.55;;
71166;SDS011;58864;45.928;20.078;2023-04-06T14:06:54;19.58;;;8.82;;
71166;SDS011;58864;45.928;20.078;2023-04-06T14:09:18;19.37;;;9.17;;
71166;SDS011;58864;45.928;20.078;2023-04-06T14:11:43;19.02;;;8.93;;